Time;durP1;ratioP1;P1;durP2;ratioP2;P2;SDS_P1;SDS_P2;PMS_P1;PMS_P2;Temp;Humidity;BMP_temperature;BMP_pressure;BME280_temperature;BME280_humidity;BME280_pressure;Samples;Min_cycle;Max_cycle;Signal;HPM_P1;HPM_P2
2023/03/05 01:32:20;;;;;;;27.60;13.60;;;10.00;81.20;;;;;;7220881;19;2004264;-78
2023/03/05 01:35:32;;;;;;;33.75;14.50;;;10.00;81.40;;;;;;7434076;19;20014;-78
2023/03/05 01:38:05;;;;;;;29.23;14.77;;;9.90;81.50;;;;;;7421030;19;20222;-78
2023/03/05 01:40:35;;;;;;;27.23;14.07;;;9.90;81.60;;;;;;7418379;19;20010;-78
2023/03/05 01:43:25;;;;;;;31.55;14.60;;;9.90;81.80;;;;;;7444497;19;20229;-78
2023/03/05 01:46:29;;;;;;;27.63;13.75;;;9.90;81.90;;;;;;7421592;19;19999;-77
2023/03/05 01:49:04;;;;;;;31.30;13.82;;;10.00;81.90;;;;;;7426469;19;20047;-79
2023/03/05 01:51:44;;;;;;;39.78;15.07;;;9.90;82.00;;;;;;7425886;19;20400;-78
2023/03/05 01:54:41;;;;;;;;;;;;;;;;;;;;;
2023/03/05 01:57:26;;;;;;;31.35;13.75;;;9.90;82.40;;;;;;7419588;19;20124;-78
2023/03/05 02:00:01;;;;;;;27.80;13.82;;;9.80;82.40;;;;;;7419187;19;20468;-79
2023/03/05 02:02:48;;;;;;;26.45;13.10;;;9.80;82.50;;;;;;7420092;19;20046;-78
2023/03/05 02:08:08;;;;;;;30.42;14.65;;;9.90;82.70;;;;;;7416841;19;20006;-78
2023/03/05 02:10:44;;;;;;;28.17;13.70;;;9.90;82.80;;;;;;7416824;19;20015;-78
2023/03/05 02:13:22;;;;;;;25.88;14.27;;;9.80;83.10;;;;;;7438194;19;20031;-78
2023/03/05 02:16:02;;;;;;;27.77;14.32;;;9.80;83.10;;;;;;7418415;19;20069;-78
2023/03/05 02:18:37;;;;;;;30.77;14.25;;;9.80;83.30;;;;;;7418272;19;20030;-78
2023/03/05 02:21:16;;;;;;;38.33;15.00;;;9.80;83.50;;;;;;7417295;19;20006;-78
2023/03/05 02:24:02;;;;;;;40.85;19.08;;;9.80;84.50;;;;;;7421118;19;20019;-78
2023/03/05 02:29:51;;;;;;;30.45;15.05;;;9.90;84.60;;;;;;7386868;19;20050;-78
2023/03/05 02:35:59;;;;;;;;;;;;;;;;;;;;;
2023/03/05 03:00:58;;;;;;;;;;;;;;;;;;;;;
2023/03/05 03:03:36;;;;;;;33.67;15.70;;;9.90;84.60;;;;;;7419714;19;20014;-78
2023/03/05 03:06:09;;;;;;;29.25;14.98;;;9.80;84.60;;;;;;7417774;19;20006;-79
2023/03/05 03:08:48;;;;;;;30.85;15.07;;;9.90;84.90;;;;;;7424266;19;20077;-79
2023/03/05 03:11:20;;;;;;;32.20;16.45;;;9.80;84.90;;;;;;7421530;19;20237;-77
2023/03/05 03:13:57;;;;;;;35.60;16.15;;;9.90;85.10;;;;;;7417273;19;20011;-77
2023/03/05 03:16:41;;;;;;;41.67;16.73;;;9.80;84.90;;;;;;7439034;19;20024;-78
2023/03/05 03:19:23;;;;;;;37.33;16.73;;;9.80;85.00;;;;;;7420966;19;20006;-78
2023/03/05 03:22:20;;;;;;;;;;;9.90;85.00;;;;;;7419942;19;20010;-78
2023/03/05 03:28:32;;;;;;;42.55;17.67;;;9.90;85.20;;;;;;7417904;19;20054;-79
2023/03/05 04:17:57;;;;;;;41.63;20.00;;;10.00;86.30;;;;;;7418065;19;20011;-78
2023/03/05 04:21:31;;;;;;;;;;;;;;;;;;;;;
2023/03/05 04:28:24;;;;;;;;;;;;;;;;;;;;;
2023/03/05 05:19:15;;;;;;;;;;;;;;;;;;;;;
2023/03/05 05:22:41;;;;;;;;;;;;;;;;;;;;;
2023/03/05 05:41:55;;;;;;;42.60;16.83;;;9.80;88.20;;;;;;6232355;19;16034618;-79
2023/03/05 05:44:29;;;;;;;43.78;19.17;;;9.90;88.20;;;;;;7417764;19;20281;-79
2023/03/05 05:46:58;;;;;;;40.53;18.00;;;9.90;88.30;;;;;;7417861;19;20003;-79
2023/03/05 05:49:29;;;;;;;48.00;18.52;;;9.90;88.20;;;;;;7441676;19;20003;-79
2023/03/05 05:52:44;;;;;;;40.00;19.25;;;9.90;88.30;;;;;;7427886;19;20020;-79
2023/03/05 05:58:49;;;;;;;;;;;;;;;;;;;;;
2023/03/05 06:04:55;;;;;;;43.10;18.90;;;9.90;88.40;;;;;;7315487;19;2004345;-79
2023/03/05 06:10:37;;;;;;;39.40;18.17;;;9.90;88.40;;;;;;7414550;19;20017;-79
2023/03/05 06:13:25;;;;;;;43.22;19.60;;;9.80;88.40;;;;;;7416691;19;20006;-79
2023/03/05 06:16:23;;;;;;;43.72;20.17;;;9.80;88.40;;;;;;7417059;19;20005;-79
2023/03/05 06:22:51;;;;;;;45.53;18.50;;;9.80;88.90;;;;;;7420828;19;20033;-79
2023/03/05 06:25:50;;;;;;;44.05;19.10;;;9.80;89.00;;;;;;7424278;19;20027;-79
2023/03/05 06:28:37;;;;;;;42.47;19.02;;;9.60;89.40;;;;;;7421249;19;20015;-79
2023/03/05 06:34:18;;;;;;;41.88;19.40;;;9.50;90.00;;;;;;7431117;19;20018;-79
2023/03/05 06:37:11;;;;;;;42.58;18.80;;;9.60;90.00;;;;;;7423538;19;20025;-78
2023/03/05 06:43:05;;;;;;;45.83;20.23;;;9.70;89.70;;;;;;7407668;19;20006;-78
2023/03/05 06:45:35;;;;;;;40.08;18.88;;;9.70;89.70;;;;;;7392381;19;20223;-78
2023/03/05 06:48:10;;;;;;;40.35;18.45;;;9.50;90.00;;;;;;7386274;19;20215;-78
2023/03/05 06:50:45;;;;;;;43.40;18.35;;;9.60;90.00;;;;;;7386849;19;20010;-78
2023/03/05 06:53:44;;;;;;;;;;;;;;;;;;;;;
2023/03/05 06:56:58;;;;;;;38.38;17.60;;;9.60;89.90;;;;;;7387915;19;20074;-79
2023/03/05 07:02:38;;;;;;;44.13;17.00;;;9.50;90.10;;;;;;7368402;19;20043;-79
2023/03/05 07:11:29;;;;;;;62.03;27.27;;;9.60;90.90;;;;;;7385474;19;20018;-79
2023/03/05 07:14:22;;;;;;;1266.45;63.35;;;9.70;91.30;;;;;;7388560;19;20018;-79
2023/03/05 07:17:23;;;;;;;92.15;25.85;;;9.70;91.20;;;;;;7387665;19;20011;-79
2023/03/05 07:20:10;;;;;;;46.20;22.30;;;9.80;91.20;;;;;;7384857;19;20006;-79
2023/03/05 07:23:24;;;;;;;;;;;;;;;;;;;;;
2023/03/05 07:26:18;;;;;;;45.08;19.83;;;9.80;91.00;;;;;;7391605;19;20000;-79
2023/03/05 07:49:16;;;;;;;35.05;15.60;;;10.00;90.80;;;;;;5876391;19;14467882;-80
2023/03/05 07:52:27;;;;;;;37.00;15.93;;;10.10;90.10;;;;;;7425546;19;20010;-79
2023/03/05 07:55:39;;;;;;;37.28;15.13;;;10.10;90.00;;;;;;7446823;19;20013;-79
2023/03/05 07:58:17;;;;;;;34.78;14.38;;;10.10;89.70;;;;;;7428468;19;20011;-80
2023/03/05 08:04:05;;;;;;;29.75;14.32;;;10.10;89.00;;;;;;7420274;19;20002;-79
2023/03/05 08:07:08;;;;;;;27.58;13.05;;;10.10;89.10;;;;;;7419926;19;20016;-79
2023/03/05 08:10:17;;;;;;;31.42;14.30;;;10.10;89.10;;;;;;7419724;19;19999;-79
2023/03/05 08:13:50;;;;;;;;;;;;;;;;;;;;;
2023/03/05 08:39:11;;;;;;;;;;;;;;;;;;;;;
2023/03/05 08:42:05;;;;;;;22.67;11.88;;;10.30;88.40;;;;;;7418555;19;20014;-80
2023/03/05 08:45:09;;;;;;;26.92;11.30;;;10.40;88.00;;;;;;7419468;19;20062;-79
2023/03/05 08:48:03;;;;;;;21.15;10.88;;;10.30;87.60;;;;;;7423908;19;20006;-79
2023/03/05 09:25:05;;;;;;;23.95;11.07;;;10.50;86.60;;;;;;5337186;19;5266248;-79
2023/03/05 09:27:49;;;;;;;20.48;10.93;;;10.40;86.30;;;;;;7422950;19;20031;-79
2023/03/05 09:34:20;;;;;;;22.20;10.57;;;10.50;86.50;;;;;;7418086;19;20076;-79
2023/03/05 09:37:14;;;;;;;22.77;10.18;;;10.50;86.10;;;;;;7418732;19;20006;-79
2023/03/05 09:39:54;;;;;;;20.83;9.35;;;10.60;86.00;;;;;;7420129;19;20007;-79
2023/03/05 09:50:10;;;;;;;;;;;;;;;;;;;;;
2023/03/05 09:53:22;;;;;;;18.40;9.30;;;10.70;85.30;;;;;;7314359;19;2020590;-80
2023/03/05 09:56:19;;;;;;;;;;;10.70;85.10;;;;;;7416353;19;20366;-80
2023/03/05 09:59:34;;;;;;;;;;;;;;;;;;;;;
2023/03/05 10:05:49;;;;;;;19.63;9.45;;;10.80;84.50;;;;;;7421069;19;20017;-79
